createdAt,value
2019-05-19T00:02:19.790Z,94901.52
2019-05-19T00:04:46.869Z,94903.14
2019-05-19T00:07:13.926Z,94912.03
2019-05-19T00:09:40.990Z,94917.69
2019-05-19T00:12:08.095Z,94913.97
2019-05-19T00:14:35.140Z,94914.73
2019-05-19T00:17:02.240Z,94909.64
2019-05-19T00:19:29.308Z,94913.95
2019-05-19T00:21:56.392Z,94916.92
2019-05-19T00:24:23.501Z,94915.89
2019-05-19T00:26:50.580Z,94925.84
2019-05-19T00:29:17.651Z,94922.62
2019-05-19T00:31:44.729Z,94919.67
2019-05-19T00:34:11.809Z,94924.23
2019-05-19T00:36:38.891Z,94917.25
2019-05-19T00:39:05.958Z,94914.87
2019-05-19T00:41:35.571Z,94898.48
2019-05-19T00:44:02.638Z,94908.16
2019-05-19T00:46:29.804Z,94917.56
2019-05-19T00:48:56.893Z,94915.41
2019-05-19T00:51:23.979Z,94907.34
2019-05-19T00:53:51.021Z,94903.59
2019-05-19T00:56:18.455Z,94903.89
2019-05-19T00:58:46.034Z,94901.48
2019-05-19T01:01:14.141Z,94904.97
2019-05-19T01:03:41.198Z,94909.80
2019-05-19T01:06:08.293Z,94911.41
2019-05-19T01:08:35.371Z,94910.91
2019-05-19T01:11:02.511Z,94912.25
2019-05-19T01:13:29.620Z,94903.38
2019-05-19T01:15:56.691Z,94903.66
2019-05-19T01:18:25.591Z,94914.12
2019-05-19T01:20:52.656Z,94915.73
2019-05-19T01:23:19.773Z,94916.02
2019-05-19T01:25:46.829Z,94912.53
2019-05-19T01:28:13.937Z,94913.34
2019-05-19T01:30:41.003Z,94916.55
2019-05-19T01:33:08.080Z,94920.30
2019-05-19T01:35:35.176Z,94921.91
2019-05-19T01:38:02.298Z,94918.45
2019-05-19T01:40:29.369Z,94915.48
2019-05-19T01:42:56.496Z,94915.49
2019-05-19T01:45:24.683Z,94915.23
2019-05-19T01:47:51.788Z,94909.59
2019-05-19T01:50:18.988Z,94911.72
2019-05-19T01:52:46.068Z,94916.55
2019-05-19T01:55:13.760Z,94914.41
2019-05-19T01:57:40.870Z,94913.61
2019-05-19T02:00:08.447Z,94907.70
2019-05-19T02:02:35.513Z,94908.78
2019-05-19T02:05:02.627Z,94909.05
2019-05-19T02:07:29.801Z,94906.89
2019-05-19T02:09:56.915Z,94920.58
2019-05-19T02:12:24.017Z,94910.11
2019-05-19T02:14:51.102Z,94915.20
2019-05-19T02:17:18.178Z,94907.14
2019-05-19T02:19:45.234Z,94909.04
2019-05-19T02:22:12.338Z,94911.72
2019-05-19T02:24:39.404Z,94909.29
2019-05-19T02:27:06.454Z,94910.89
2019-05-19T02:29:33.636Z,94910.34
2019-05-19T02:32:00.715Z,94911.41
2019-05-19T02:34:27.820Z,94909.77
2019-05-19T02:36:54.880Z,94913.01
2019-05-19T02:39:21.955Z,94912.48
2019-05-19T02:41:49.462Z,94913.53
2019-05-19T02:44:16.777Z,94913.00
2019-05-19T02:46:44.969Z,94907.36
2019-05-19T02:49:12.291Z,94904.44
2019-05-19T02:51:40.378Z,94904.70
2019-05-19T02:54:07.733Z,94904.67
2019-05-19T02:56:35.124Z,94897.96
2019-05-19T02:59:02.470Z,94899.83
2019-05-19T03:01:29.563Z,94901.70
2019-05-19T03:03:56.627Z,94900.09
2019-05-19T03:06:24.020Z,94900.36
2019-05-19T03:08:51.064Z,94898.75
2019-05-19T03:11:18.143Z,94900.09
2019-05-19T03:13:45.234Z,94898.48
2019-05-19T03:16:12.320Z,94906.74
2019-05-19T03:18:39.412Z,94904.83
2019-05-19T03:21:11.088Z,94910.45
2019-05-19T03:23:45.261Z,94913.12
2019-05-19T03:26:12.323Z,94917.14
2019-05-19T03:28:39.419Z,94912.60
2019-05-19T03:34:10.241Z,94914.72
2019-05-19T03:36:37.293Z,94914.73
2019-05-19T03:39:05.658Z,94917.41
2019-05-19T03:41:32.742Z,94922.77
2019-05-19T03:43:59.848Z,94921.41
2019-05-19T03:46:26.925Z,94926.25
2019-05-19T03:48:53.963Z,94932.42
2019-05-19T03:51:30.870Z,94929.48
2019-05-19T03:53:59.669Z,94935.64
2019-05-19T03:56:26.761Z,94936.98
2019-05-19T03:58:53.820Z,94936.16
2019-05-19T04:01:21.452Z,94946.85
2019-05-19T04:03:48.515Z,94945.74
2019-05-19T04:06:15.576Z,94946.22
2019-05-19T04:08:42.705Z,94948.09
2019-05-19T04:11:09.794Z,94948.41
2019-05-19T04:13:36.859Z,94949.23
2019-05-19T04:16:03.934Z,94954.89
2019-05-19T04:18:31.032Z,94956.48
2019-05-19T04:20:58.069Z,94956.25
2019-05-19T04:23:25.174Z,94953.31
2019-05-19T04:25:52.219Z,94954.70
2019-05-19T04:28:19.308Z,94954.48
2019-05-19T04:30:46.363Z,94948.09
2019-05-19T04:33:13.449Z,94948.10
2019-05-19T04:35:40.548Z,94951.09
2019-05-19T04:38:07.624Z,94951.93
2019-05-19T04:40:34.710Z,94952.73
2019-05-19T04:43:01.793Z,94959.20
2019-05-19T04:45:28.854Z,94957.07
2019-05-19T04:47:55.927Z,94970.23
2019-05-19T04:50:23.018Z,94968.08
2019-05-19T04:52:50.106Z,94976.42
2019-05-19T04:55:17.131Z,94975.05
2019-05-19T04:57:44.161Z,94978.56
2019-05-19T05:00:11.351Z,94983.92
2019-05-19T05:02:38.459Z,94981.75
2019-05-19T05:05:05.922Z,94987.41
2019-05-19T05:07:33.028Z,94983.34
2019-05-19T05:10:00.109Z,94985.70
2019-05-19T05:12:27.202Z,94979.80
2019-05-19T05:14:54.291Z,94974.72
2019-05-19T05:17:21.383Z,94976.88
2019-05-19T05:19:48.487Z,94975.06
2019-05-19T05:22:22.054Z,94970.84
2019-05-19T05:24:44.533Z,94978.84
2019-05-19T05:27:11.621Z,94982.70
2019-05-19T05:29:38.663Z,94982.94
2019-05-19T05:32:05.712Z,94974.82
2019-05-19T05:34:32.817Z,94981.97
2019-05-19T05:36:59.883Z,94982.39
2019-05-19T05:39:26.971Z,94975.67
2019-05-19T05:41:54.027Z,94975.70
2019-05-19T05:44:21.124Z,94972.23
2019-05-19T05:46:48.197Z,94970.59
2019-05-19T05:49:15.289Z,94963.03
2019-05-19T05:51:42.339Z,94968.41
2019-05-19T05:54:09.452Z,94966.93
2019-05-19T05:56:36.499Z,94963.11
2019-05-19T05:59:03.564Z,94959.57
2019-05-19T06:01:30.627Z,94958.16
2019-05-19T06:03:57.715Z,94960.31
2019-05-19T06:06:25.092Z,94958.83
2019-05-19T06:08:52.135Z,94961.42
2019-05-19T06:11:19.237Z,94961.36
2019-05-19T06:13:49.411Z,94957.49
2019-05-19T06:16:21.297Z,94962.58
2019-05-19T06:18:48.387Z,94971.95
2019-05-19T06:21:15.470Z,94972.77
2019-05-19T06:23:42.548Z,94975.39
2019-05-19T06:26:09.653Z,94964.22
2019-05-19T06:28:36.705Z,94964.66
2019-05-19T06:31:03.802Z,94955.02
2019-05-19T06:33:30.918Z,94962.50
2019-05-19T06:35:57.988Z,94955.91
2019-05-19T06:38:25.100Z,94957.75
2019-05-19T06:40:52.203Z,94957.75
2019-05-19T06:43:19.312Z,94961.73
2019-05-19T06:45:46.400Z,94961.73
2019-05-19T06:48:25.652Z,94962.23
2019-05-19T06:50:52.703Z,94962.23
2019-05-19T06:53:19.818Z,94975.84
2019-05-19T06:55:46.901Z,94975.84
2019-05-19T06:58:13.975Z,94970.29
2019-05-19T07:01:00.531Z,94964.07
2019-05-19T07:03:27.670Z,94964.07
2019-05-19T07:05:54.716Z,94966.37
2019-05-19T07:08:34.312Z,94964.74
2019-05-19T07:11:01.387Z,94964.74
2019-05-19T07:13:28.514Z,94963.34
2019-05-19T07:15:55.590Z,94963.09
2019-05-19T07:18:22.656Z,94952.11
2019-05-19T07:20:49.780Z,94954.71
2019-05-19T07:23:27.695Z,94952.39
2019-05-19T07:25:52.382Z,94950.03
2019-05-19T07:28:19.576Z,94945.75
2019-05-19T07:30:46.704Z,94955.86
2019-05-19T07:33:13.765Z,94953.29
2019-05-19T07:35:40.858Z,94952.18
2019-05-19T07:38:07.968Z,94953.67
2019-05-19T07:40:35.045Z,94952.97
2019-05-19T07:43:02.124Z,94951.19
2019-05-19T07:45:29.209Z,94951.98
2019-05-19T07:47:56.300Z,94951.67
2019-05-19T07:50:23.390Z,94944.03
2019-05-19T07:52:50.508Z,94943.27
2019-05-19T07:55:17.516Z,94941.31
2019-05-19T07:57:44.611Z,94934.47
2019-05-19T08:00:11.694Z,94939.39
2019-05-19T08:02:38.936Z,94942.97
2019-05-19T08:05:06.167Z,94944.81
2019-05-19T08:07:33.355Z,94941.75
2019-05-19T08:10:00.458Z,94944.09
2019-05-19T08:12:27.511Z,94943.92
2019-05-19T08:14:54.579Z,94947.52
2019-05-19T08:17:21.655Z,94943.92
2019-05-19T08:19:48.753Z,94935.61
2019-05-19T08:22:20.516Z,94938.53
2019-05-19T08:24:47.597Z,94932.55
2019-05-19T08:27:14.713Z,94930.83
2019-05-19T08:29:41.769Z,94930.02
2019-05-19T08:32:08.859Z,94931.52
2019-05-19T08:34:35.913Z,94927.78
2019-05-19T08:37:03.266Z,94929.65
2019-05-19T08:39:30.361Z,94928.44
2019-05-19T08:41:57.410Z,94926.28
2019-05-19T08:44:24.511Z,94929.33
2019-05-19T08:46:51.706Z,94926.03
2019-05-19T08:49:18.762Z,94925.32
2019-05-19T08:51:45.816Z,94929.38
2019-05-19T08:54:15.949Z,94929.45
2019-05-19T08:56:48.133Z,94924.17
2019-05-19T08:59:15.233Z,94919.01
2019-05-19T09:01:42.319Z,94916.99
2019-05-19T09:04:09.391Z,94911.59
2019-05-19T09:06:36.480Z,94918.13
2019-05-19T09:09:04.931Z,94911.19
2019-05-19T09:11:32.042Z,94908.38
2019-05-19T09:13:59.182Z,94908.86
2019-05-19T09:16:26.270Z,94914.61
2019-05-19T09:18:55.362Z,94909.87
2019-05-19T09:21:22.474Z,94908.53
2019-05-19T09:23:49.532Z,94904.72
2019-05-19T09:26:16.642Z,94900.08
2019-05-19T09:28:43.708Z,94901.13
2019-05-19T09:31:10.812Z,94900.99
2019-05-19T09:33:37.886Z,94897.02
2019-05-19T09:36:04.938Z,94902.73
2019-05-19T09:38:32.085Z,94895.05
2019-05-19T09:40:59.272Z,94896.04
2019-05-19T09:43:26.359Z,94898.35
2019-05-19T09:45:53.463Z,94893.02
2019-05-19T09:48:20.510Z,94889.41
2019-05-19T09:50:47.621Z,94885.69
2019-05-19T09:53:14.668Z,94886.73
2019-05-19T09:55:41.762Z,94877.73
2019-05-19T09:58:10.107Z,94878.73
2019-05-19T10:00:37.183Z,94873.77
2019-05-19T10:03:04.339Z,94874.31
2019-05-19T10:05:31.451Z,94866.02
2019-05-19T10:07:58.521Z,94860.47
2019-05-19T10:11:05.161Z,94858.09
2019-05-19T10:13:32.251Z,94844.86
2019-05-19T10:15:59.346Z,94844.88
2019-05-19T10:18:26.426Z,94836.49
2019-05-19T10:20:53.540Z,94839.92
2019-05-19T10:23:20.624Z,94829.05
2019-05-19T10:25:47.732Z,94829.56
2019-05-19T10:28:14.841Z,94827.18
2019-05-19T10:30:41.903Z,94829.88
2019-05-19T10:33:08.982Z,94821.92
2019-05-19T10:35:36.075Z,94827.34
2019-05-19T10:38:04.204Z,94828.99
2019-05-19T10:40:31.299Z,94831.12
2019-05-19T10:42:58.411Z,94836.16
2019-05-19T10:45:25.518Z,94832.04
2019-05-19T10:47:52.589Z,94828.73
2019-05-19T10:50:19.751Z,94824.45
2019-05-19T10:52:46.822Z,94823.30
2019-05-19T10:55:13.924Z,94819.38
2019-05-19T10:57:41.002Z,94826.13
2019-05-19T11:00:08.235Z,94814.39
2019-05-19T11:02:35.351Z,94808.02
2019-05-19T11:05:02.494Z,94808.81
2019-05-19T11:07:29.695Z,94805.63
2019-05-19T11:09:56.810Z,94807.45
2019-05-19T11:12:23.930Z,94798.41
2019-05-19T11:14:51.021Z,94797.78
2019-05-19T11:17:18.176Z,94789.42
2019-05-19T11:19:45.293Z,94783.05
2019-05-19T11:22:12.410Z,94785.88
2019-05-19T11:24:39.489Z,94782.01
2019-05-19T11:27:06.604Z,94781.37
2019-05-19T11:29:33.680Z,94786.55
2019-05-19T11:32:00.796Z,94781.13
2019-05-19T11:34:27.874Z,94767.49
2019-05-19T11:36:54.973Z,94770.22
2019-05-19T11:39:22.062Z,94777.11
2019-05-19T11:41:49.183Z,94773.64
2019-05-19T11:44:16.298Z,94773.75
2019-05-19T11:46:45.437Z,94769.05
2019-05-19T11:49:12.538Z,94767.94
2019-05-19T11:51:39.660Z,94766.06
2019-05-19T11:54:06.766Z,94763.97
2019-05-19T11:56:36.217Z,94753.86
2019-05-19T11:59:05.323Z,94754.05
2019-05-19T12:01:32.452Z,94737.08
2019-05-19T12:03:59.531Z,94743.08
2019-05-19T12:06:38.825Z,94742.66
2019-05-19T12:08:55.653Z,94751.36
2019-05-19T12:11:22.751Z,94747.98
2019-05-19T12:13:50.138Z,94741.25
2019-05-19T12:16:17.198Z,94741.72
2019-05-19T12:18:44.332Z,94737.14
2019-05-19T12:21:11.391Z,94738.91
2019-05-19T12:23:38.532Z,94739.63
2019-05-19T12:26:05.654Z,94738.48
2019-05-19T12:28:32.763Z,94735.42
2019-05-19T12:31:00.753Z,94731.59
2019-05-19T12:33:27.865Z,94736.22
2019-05-19T12:35:54.909Z,94734.73
2019-05-19T12:38:22.009Z,94735.94
2019-05-19T12:40:49.116Z,94729.39
2019-05-19T12:43:16.263Z,94721.75
2019-05-19T12:45:43.398Z,94715.36
2019-05-19T12:48:10.497Z,94713.56
2019-05-19T12:50:37.641Z,94714.66
2019-05-19T12:53:04.756Z,94717.34
2019-05-19T12:55:31.853Z,94717.42
2019-05-19T12:57:59.027Z,94711.02
2019-05-19T13:00:26.094Z,94708.58
2019-05-19T13:02:53.286Z,94716.63
2019-05-19T13:05:20.316Z,94709.55
2019-05-19T13:07:47.418Z,94695.16
2019-05-19T13:10:14.562Z,94704.08
2019-05-19T13:12:41.714Z,94700.11
2019-05-19T13:15:09.103Z,94701.94
2019-05-19T13:17:36.201Z,94693.20
2019-05-19T13:20:03.648Z,94684.16
2019-05-19T13:22:30.721Z,94689.91
2019-05-19T13:24:57.832Z,94680.92
2019-05-19T13:27:24.940Z,94676.89
2019-05-19T13:29:52.017Z,94669.22
2019-05-19T13:32:19.143Z,94667.27
2019-05-19T13:34:46.247Z,94667.70
2019-05-19T13:37:15.382Z,94667.14
2019-05-19T13:39:42.483Z,94658.39
2019-05-19T13:42:09.606Z,94659.66
2019-05-19T13:44:36.709Z,94662.58
2019-05-19T13:47:03.826Z,94659.19
2019-05-19T13:49:30.919Z,94655.99
2019-05-19T13:51:58.031Z,94651.34
2019-05-19T13:54:25.112Z,94651.05
2019-05-19T13:56:52.190Z,94651.06
2019-05-19T13:59:19.264Z,94640.38
2019-05-19T14:01:46.365Z,94648.86
2019-05-19T14:04:13.900Z,94645.33
2019-05-19T14:06:41.010Z,94647.08
2019-05-19T14:09:08.080Z,94649.99
2019-05-19T14:11:35.144Z,94641.22
2019-05-19T14:14:02.239Z,94639.12
2019-05-19T14:16:29.324Z,94634.70
2019-05-19T14:18:56.426Z,94637.21
2019-05-19T14:21:24.296Z,94633.73
2019-05-19T14:23:51.374Z,94633.13
2019-05-19T14:26:18.477Z,94627.42
2019-05-19T14:28:45.575Z,94626.32
2019-05-19T14:31:12.669Z,94624.16
2019-05-19T14:33:39.762Z,94613.98
2019-05-19T14:36:06.838Z,94618.41
2019-05-19T14:38:33.980Z,94614.27
2019-05-19T14:41:01.037Z,94605.91
2019-05-19T14:43:28.672Z,94605.02
2019-05-19T14:45:55.793Z,94597.36
2019-05-19T14:48:22.875Z,94599.63
2019-05-19T14:50:49.983Z,94599.56
2019-05-19T14:53:17.062Z,94598.80
2019-05-19T14:55:44.200Z,94602.48
2019-05-19T14:58:11.326Z,94600.79
2019-05-19T15:00:38.408Z,94604.18
2019-05-19T15:03:05.478Z,94607.66
2019-05-19T15:05:32.599Z,94611.48
2019-05-19T15:07:59.726Z,94614.23
2019-05-19T15:10:26.813Z,94607.64
2019-05-19T15:12:53.914Z,94616.53
2019-05-19T15:15:21.000Z,94610.70
2019-05-19T15:17:48.149Z,94611.69
2019-05-19T15:20:36.505Z,94612.05
2019-05-19T15:23:03.657Z,94613.23
2019-05-19T15:25:30.734Z,94615.88
2019-05-19T15:28:01.474Z,94619.33
2019-05-19T15:30:33.457Z,94616.14
2019-05-19T15:33:00.581Z,94606.66
2019-05-19T15:35:27.678Z,94611.42
2019-05-19T15:37:54.772Z,94605.28
2019-05-19T15:40:21.852Z,94603.15
2019-05-19T15:42:48.915Z,94596.66
2019-05-19T15:45:16.049Z,94593.53
2019-05-19T15:47:43.159Z,94592.93
2019-05-19T15:50:10.356Z,94601.34
2019-05-19T15:52:37.486Z,94598.36
2019-05-19T15:55:07.721Z,94599.04
2019-05-19T15:57:34.822Z,94601.81
2019-05-19T16:00:02.876Z,94603.20
2019-05-19T16:02:37.457Z,94604.16
2019-05-19T16:05:04.564Z,94603.58
2019-05-19T16:07:31.735Z,94597.06
2019-05-19T16:09:58.835Z,94605.17
2019-05-19T16:12:25.966Z,94604.73
2019-05-19T16:14:53.504Z,94612.06
2019-05-19T16:17:20.611Z,94603.75
2019-05-19T16:19:47.712Z,94604.94
2019-05-19T16:22:14.842Z,94609.29
2019-05-19T16:24:41.903Z,94604.55
2019-05-19T16:27:09.040Z,94604.94
2019-05-19T16:29:36.115Z,94608.89
2019-05-19T16:32:03.197Z,94608.89
2019-05-19T16:34:30.288Z,94611.45
2019-05-19T16:36:57.354Z,94611.61
2019-05-19T16:39:24.490Z,94608.05
2019-05-19T16:41:51.592Z,94603.55
2019-05-19T16:44:18.692Z,94604.16
2019-05-19T16:46:45.787Z,94604.16
2019-05-19T16:49:12.860Z,94605.12
2019-05-19T16:51:39.958Z,94608.60
2019-05-19T16:57:04.910Z,94610.11
2019-05-19T16:59:32.019Z,94608.67
2019-05-19T17:01:59.103Z,94616.28
2019-05-19T17:04:26.187Z,94617.95
2019-05-19T17:06:53.572Z,94613.63
2019-05-19T17:09:20.686Z,94618.14
2019-05-19T17:11:47.785Z,94616.30
2019-05-19T17:14:14.867Z,94623.98
2019-05-19T17:16:41.993Z,94625.18
2019-05-19T17:19:09.090Z,94624.72
2019-05-19T17:21:36.158Z,94632.70
2019-05-19T17:24:03.331Z,94629.41
2019-05-19T17:26:30.451Z,94630.20
2019-05-19T17:29:00.974Z,94637.13
2019-05-19T17:31:36.286Z,94634.95
2019-05-19T17:34:03.382Z,94636.31
2019-05-19T17:36:30.465Z,94639.64
2019-05-19T17:38:57.570Z,94636.74
2019-05-19T17:41:24.669Z,94638.92
2019-05-19T17:43:51.746Z,94640.78
2019-05-19T17:46:18.853Z,94638.45
2019-05-19T17:48:45.980Z,94634.91
2019-05-19T17:51:13.867Z,94639.38
2019-05-19T17:53:41.373Z,94640.89
2019-05-19T17:56:08.453Z,94644.64
2019-05-19T17:58:56.818Z,94637.74
2019-05-19T18:01:23.906Z,94642.19
2019-05-19T18:03:51.138Z,94634.75
2019-05-19T18:06:18.216Z,94639.05
2019-05-19T18:08:45.325Z,94637.59
2019-05-19T18:11:12.428Z,94641.38
2019-05-19T18:13:39.504Z,94641.69
2019-05-19T18:16:06.582Z,94641.42
2019-05-19T18:18:33.720Z,94639.34
2019-05-19T18:21:00.832Z,94645.14
2019-05-19T18:23:27.936Z,94652.61
2019-05-19T18:25:54.983Z,94651.72
2019-05-19T18:28:22.098Z,94650.02
2019-05-19T18:30:49.162Z,94648.36
2019-05-19T18:33:16.263Z,94652.91
2019-05-19T18:35:43.380Z,94658.03
2019-05-19T18:38:10.464Z,94655.22
2019-05-19T18:40:37.548Z,94652.71
2019-05-19T18:43:04.632Z,94658.87
2019-05-19T18:45:31.703Z,94668.75
2019-05-19T18:47:58.804Z,94670.67
2019-05-19T18:50:25.858Z,94680.28
2019-05-19T18:52:52.991Z,94684.91
2019-05-19T18:55:19.992Z,94697.04
2019-05-19T18:57:47.124Z,94694.63
2019-05-19T19:00:20.304Z,94695.50
2019-05-19T19:02:48.031Z,94698.18
2019-05-19T19:05:15.175Z,94712.13
2019-05-19T19:08:01.886Z,94713.69
2019-05-19T19:10:28.978Z,94713.23
2019-05-19T19:12:56.051Z,94727.05
2019-05-19T19:15:23.137Z,94725.23
2019-05-19T19:17:50.252Z,94728.59
2019-05-19T19:20:17.334Z,94737.19
2019-05-19T19:22:44.446Z,94731.91
2019-05-19T19:25:12.120Z,94734.31
2019-05-19T19:27:39.319Z,94737.62
2019-05-19T19:30:06.441Z,94740.74
2019-05-19T19:32:33.538Z,94739.14
2019-05-19T19:35:00.610Z,94748.36
2019-05-19T19:37:27.718Z,94743.72
2019-05-19T19:39:55.063Z,94747.56
2019-05-19T19:42:22.152Z,94758.31
2019-05-19T19:44:49.205Z,94756.96
2019-05-19T19:47:16.284Z,94754.00
2019-05-19T19:49:46.132Z,94751.61
2019-05-19T19:52:34.624Z,94752.41
2019-05-19T19:55:01.731Z,94752.00
2019-05-19T19:57:28.816Z,94751.20
2019-05-19T19:59:55.893Z,94761.26
2019-05-19T20:02:23.331Z,94759.09
2019-05-19T20:04:50.426Z,94762.38
2019-05-19T20:07:17.518Z,94764.67
2019-05-19T20:09:44.623Z,94760.44
2019-05-19T20:12:11.720Z,94761.86
2019-05-19T20:14:38.827Z,94756.65
2019-05-19T20:17:05.936Z,94754.35
2019-05-19T20:19:33.257Z,94753.38
2019-05-19T20:22:00.410Z,94751.05
2019-05-19T20:24:27.496Z,94752.23
2019-05-19T20:26:54.586Z,94752.64
2019-05-19T20:29:21.676Z,94756.53
2019-05-19T20:31:48.777Z,94766.09
2019-05-19T20:34:15.893Z,94756.85
2019-05-19T20:36:43.267Z,94756.91
2019-05-19T20:39:10.393Z,94755.38
2019-05-19T20:41:37.440Z,94756.01
2019-05-19T20:44:04.547Z,94758.64
2019-05-19T20:46:31.628Z,94758.53
2019-05-19T20:48:58.718Z,94755.27
2019-05-19T20:51:25.807Z,94751.57
2019-05-19T20:53:53.474Z,94754.91
2019-05-19T20:56:28.373Z,94755.15
2019-05-19T20:58:55.464Z,94755.57
2019-05-19T21:01:22.548Z,94758.04
2019-05-19T21:03:49.678Z,94760.27
2019-05-19T21:06:16.746Z,94756.56
2019-05-19T21:11:45.202Z,94755.11
2019-05-19T21:14:12.294Z,94762.10
2019-05-19T21:16:46.110Z,94757.98
2019-05-19T21:19:13.197Z,94760.16
2019-05-19T21:21:40.306Z,94763.30
2019-05-19T21:24:07.392Z,94767.73
2019-05-19T21:26:34.460Z,94764.53
2019-05-19T21:29:01.541Z,94763.67
2019-05-19T21:31:28.673Z,94753.91
2019-05-19T21:33:55.782Z,94759.56
2019-05-19T21:36:22.874Z,94757.28
2019-05-19T21:38:49.986Z,94763.31
2019-05-19T21:41:17.051Z,94763.06
2019-05-19T21:43:45.203Z,94758.41
2019-05-19T21:46:31.748Z,94771.88
2019-05-19T21:48:58.855Z,94771.88
2019-05-19T21:51:25.941Z,94764.54
2019-05-19T21:53:53.089Z,94781.39
2019-05-19T21:56:20.167Z,94781.39
2019-05-19T21:58:47.250Z,94777.09
2019-05-19T22:01:22.748Z,94787.05
2019-05-19T22:03:43.433Z,94790.02
2019-05-19T22:06:10.507Z,94776.98
2019-05-19T22:08:37.612Z,94782.14
2019-05-19T22:11:04.839Z,94779.40
2019-05-19T22:13:31.951Z,94779.40
2019-05-19T22:16:12.141Z,94794.08
2019-05-19T22:18:28.122Z,94787.70
2019-05-19T22:20:55.257Z,94784.60
2019-05-19T22:23:22.323Z,94801.78
2019-05-19T22:25:49.400Z,94801.78
2019-05-19T22:28:16.494Z,94803.19
2019-05-19T22:30:43.609Z,94807.86
2019-05-19T22:33:10.719Z,94817.03
2019-05-19T22:35:37.930Z,94815.73
2019-05-19T22:38:05.012Z,94815.73
2019-05-19T22:40:32.101Z,94813.83
2019-05-19T22:42:59.183Z,94826.10
2019-05-19T22:45:26.310Z,94808.00
2019-05-19T22:47:53.392Z,94808.00
2019-05-19T22:50:20.464Z,94803.44
2019-05-19T22:52:47.555Z,94803.94
2019-05-19T22:55:16.261Z,94808.80
2019-05-19T22:57:43.362Z,94808.80
2019-05-19T23:00:11.978Z,94808.55
2019-05-19T23:02:39.346Z,94784.81
2019-05-19T23:05:06.763Z,94798.68
2019-05-19T23:07:35.876Z,94808.45
2019-05-19T23:10:03.485Z,94798.78
2019-05-19T23:12:30.590Z,94798.78
2019-05-19T23:14:57.690Z,94810.42
2019-05-19T23:17:24.769Z,94810.72
2019-05-19T23:19:51.818Z,94790.61
2019-05-19T23:22:19.686Z,94805.50
2019-05-19T23:24:46.755Z,94796.34
2019-05-19T23:27:14.101Z,94805.26
2019-05-19T23:29:41.200Z,94807.05
2019-05-19T23:32:08.293Z,94807.05
2019-05-19T23:34:35.381Z,94811.56
2019-05-19T23:37:02.489Z,94811.56
2019-05-19T23:39:29.574Z,94798.63
2019-05-19T23:41:56.956Z,94803.14
2019-05-19T23:44:24.071Z,94808.91
2019-05-19T23:46:51.177Z,94807.30
2019-05-19T23:49:18.271Z,94805.65
2019-05-19T23:51:45.339Z,94805.40
2019-05-19T23:54:12.490Z,94812.77
2019-05-19T23:56:39.554Z,94812.77
2019-05-19T23:59:06.653Z,94814.93
